createdAt,value
2022-09-23T00:00:42.463Z,11.37
2022-09-23T00:02:48.656Z,11.38
2022-09-23T00:04:52.689Z,11.37
2022-09-23T00:06:55.454Z,11.38
2022-09-23T00:08:58.058Z,11.38
2022-09-23T00:11:05.045Z,11.38
2022-09-23T00:13:08.480Z,11.39
2022-09-23T00:15:11.550Z,11.34
2022-09-23T00:17:14.573Z,11.31
2022-09-23T00:19:17.213Z,11.27
2022-09-23T00:21:22.203Z,11.25
2022-09-23T00:23:24.829Z,11.24
2022-09-23T00:25:29.657Z,11.25
2022-09-23T00:27:33.843Z,11.28
2022-09-23T00:29:36.894Z,11.23
2022-09-23T00:31:39.520Z,11.15
2022-09-23T00:33:43.389Z,11.14
2022-09-23T00:35:46.075Z,11.11
2022-09-23T00:37:50.050Z,11.15
2022-09-23T00:39:52.678Z,11.15
2022-09-23T00:41:55.932Z,11.13
2022-09-23T00:43:59.270Z,11.14
2022-09-23T00:46:02.024Z,11.12
2022-09-23T00:48:05.234Z,11.11
2022-09-23T00:50:10.688Z,11.11
2022-09-23T00:52:16.795Z,11.12
2022-09-23T00:54:22.041Z,11.10
2022-09-23T00:56:25.306Z,11.07
2022-09-23T00:58:31.118Z,11.05
2022-09-23T01:00:35.518Z,10.98
2022-09-23T01:02:39.440Z,11.01
2022-09-23T01:04:42.494Z,10.97
2022-09-23T01:06:45.249Z,10.92
2022-09-23T01:08:48.408Z,10.94
2022-09-23T01:10:57.344Z,10.92
2022-09-23T01:13:06.850Z,10.91
2022-09-23T01:15:15.219Z,10.87
2022-09-23T01:17:23.874Z,10.86
2022-09-23T01:19:38.367Z,10.88
2022-09-23T01:21:48.204Z,10.86
2022-09-23T01:24:16.407Z,10.82
2022-09-23T01:26:29.625Z,10.80
2022-09-23T01:28:41.375Z,10.83
2022-09-23T01:30:48.671Z,10.77
2022-09-23T01:32:57.294Z,10.74
2022-09-23T01:35:04.475Z,10.70
2022-09-23T01:37:09.774Z,10.69
2022-09-23T01:39:15.373Z,10.69
2022-09-23T01:41:25.566Z,10.70
2022-09-23T01:43:32.299Z,10.63
2022-09-23T01:45:37.317Z,10.65
2022-09-23T01:47:44.977Z,10.62
2022-09-23T01:49:51.474Z,10.58
2022-09-23T01:51:57.987Z,10.54
2022-09-23T01:54:05.507Z,10.55
2022-09-23T01:56:13.471Z,10.57
2022-09-23T01:58:20.225Z,10.58
2022-09-23T02:00:24.011Z,10.54
2022-09-23T02:02:30.285Z,10.56
2022-09-23T02:04:39.607Z,10.53
2022-09-23T02:06:46.356Z,10.55
2022-09-23T02:08:53.054Z,10.52
2022-09-23T02:10:58.608Z,10.45
2022-09-23T02:13:05.271Z,10.45
2022-09-23T02:15:10.284Z,10.45
2022-09-23T02:17:16.482Z,10.43
2022-09-23T02:19:21.818Z,10.43
2022-09-23T02:21:27.555Z,10.41
2022-09-23T02:23:32.906Z,10.42
2022-09-23T02:25:40.083Z,10.40
2022-09-23T02:27:45.494Z,10.39
2022-09-23T02:29:54.642Z,10.37
2022-09-23T02:31:58.922Z,10.39
2022-09-23T02:34:04.107Z,10.36
2022-09-23T02:36:09.851Z,10.34
2022-09-23T02:38:18.852Z,10.35
2022-09-23T02:40:25.105Z,10.34
2022-09-23T02:42:33.218Z,10.29
2022-09-23T02:44:35.999Z,10.25
2022-09-23T02:46:38.905Z,10.25
2022-09-23T02:48:42.485Z,10.24
2022-09-23T02:50:47.618Z,10.25
2022-09-23T02:52:50.266Z,10.26
2022-09-23T02:54:54.343Z,10.20
2022-09-23T02:56:57.323Z,10.19
2022-09-23T02:59:00.102Z,10.18
2022-09-23T03:01:08.410Z,10.17
2022-09-23T03:03:24.107Z,10.14
2022-09-23T03:05:30.159Z,10.11
2022-09-23T03:07:37.006Z,10.11
2022-09-23T03:09:42.113Z,10.13
2022-09-23T03:11:49.703Z,10.16
2022-09-23T03:13:56.201Z,10.19
2022-09-23T03:16:05.070Z,10.19
2022-09-23T03:18:12.764Z,10.20
2022-09-23T03:20:18.605Z,10.18
2022-09-23T03:22:24.467Z,10.22
2022-09-23T03:24:27.177Z,10.30
2022-09-23T03:26:32.143Z,10.30
2022-09-23T03:28:37.508Z,10.34
2022-09-23T03:30:42.085Z,10.34
2022-09-23T03:32:45.888Z,10.26
2022-09-23T03:34:50.216Z,10.10
2022-09-23T03:36:57.183Z,9.94
2022-09-23T03:39:03.912Z,9.85
2022-09-23T03:41:09.421Z,9.82
2022-09-23T03:43:13.253Z,9.82
2022-09-23T03:45:19.781Z,9.86
2022-09-23T03:47:22.391Z,9.91
2022-09-23T03:49:27.286Z,9.88
2022-09-23T03:51:29.935Z,9.85
2022-09-23T03:53:32.532Z,9.75
2022-09-23T03:55:35.553Z,9.68
2022-09-23T03:57:38.743Z,9.68
2022-09-23T03:59:41.775Z,9.69
2022-09-23T04:01:46.073Z,9.68
2022-09-23T04:03:49.164Z,9.72
2022-09-23T04:05:51.845Z,9.76
2022-09-23T04:07:54.863Z,9.81
2022-09-23T04:09:57.891Z,9.81
2022-09-23T04:12:00.758Z,9.73
2022-09-23T04:14:03.373Z,9.66
2022-09-23T04:16:06.224Z,9.66
2022-09-23T04:18:10.287Z,9.55
2022-09-23T04:20:12.989Z,9.50
2022-09-23T04:22:15.596Z,9.51
2022-09-23T04:24:18.344Z,9.49
2022-09-23T04:26:20.959Z,9.42
2022-09-23T04:28:23.945Z,9.36
2022-09-23T04:30:26.631Z,9.31
2022-09-23T04:32:29.262Z,9.25
2022-09-23T04:34:33.268Z,9.20
2022-09-23T04:36:36.156Z,9.16
2022-09-23T04:38:38.745Z,9.11
2022-09-23T04:40:41.546Z,9.11
2022-09-23T04:42:44.193Z,9.11
2022-09-23T04:44:46.836Z,9.11
2022-09-23T04:46:49.715Z,9.09
2022-09-23T04:48:52.354Z,9.10
2022-09-23T04:51:02.453Z,9.15
2022-09-23T04:53:05.381Z,9.14
2022-09-23T04:55:11.231Z,9.18
2022-09-23T04:57:14.875Z,9.25
2022-09-23T04:59:17.594Z,9.33
2022-09-23T05:01:24.656Z,9.36
2022-09-23T05:03:27.431Z,9.26
2022-09-23T05:05:31.810Z,9.25
2022-09-23T05:07:36.167Z,9.29
2022-09-23T05:09:38.746Z,9.36
2022-09-23T05:11:41.385Z,9.39
2022-09-23T05:13:44.238Z,9.44
2022-09-23T05:15:46.874Z,9.50
2022-09-23T05:17:49.693Z,9.48
2022-09-23T05:19:52.313Z,9.54
2022-09-23T05:21:55.086Z,9.46
2022-09-23T05:24:00.774Z,9.46
2022-09-23T05:26:04.645Z,9.49
2022-09-23T05:28:07.230Z,9.48
2022-09-23T05:30:11.591Z,9.44
2022-09-23T05:32:14.815Z,9.42
2022-09-23T05:34:18.641Z,9.42
2022-09-23T05:36:21.493Z,9.42
2022-09-23T05:38:24.199Z,9.44
2022-09-23T05:40:28.239Z,9.43
2022-09-23T05:42:30.878Z,9.41
2022-09-23T05:44:33.553Z,9.40
2022-09-23T05:46:36.506Z,9.48
2022-09-23T05:48:39.938Z,9.53
2022-09-23T05:50:49.901Z,9.58
2022-09-23T05:52:52.536Z,9.61
2022-09-23T05:54:57.998Z,9.64
2022-09-23T05:57:04.894Z,9.69
2022-09-23T05:59:07.977Z,9.74
2022-09-23T06:01:11.578Z,9.75
2022-09-23T06:03:14.348Z,9.74
2022-09-23T06:05:17.238Z,9.76
2022-09-23T06:07:19.960Z,9.81
2022-09-23T06:09:22.545Z,9.84
2022-09-23T06:11:25.165Z,9.88
2022-09-23T06:13:29.141Z,9.96
2022-09-23T06:15:32.589Z,10.00
2022-09-23T06:17:35.208Z,10.05
2022-09-23T06:19:37.841Z,10.05
2022-09-23T06:21:41.341Z,10.10
2022-09-23T06:23:44.458Z,10.17
2022-09-23T06:25:47.092Z,10.25
2022-09-23T06:27:54.271Z,10.30
2022-09-23T06:29:58.269Z,10.34
2022-09-23T06:32:00.976Z,10.40
2022-09-23T06:34:11.794Z,10.45
2022-09-23T06:36:28.395Z,10.48
2022-09-23T06:38:40.027Z,10.53
2022-09-23T06:40:42.721Z,10.55
2022-09-23T06:42:49.029Z,10.61
2022-09-23T06:44:54.788Z,10.63
2022-09-23T06:46:58.774Z,10.64
2022-09-23T06:49:02.723Z,10.63
2022-09-23T06:51:07.333Z,10.67
2022-09-23T06:53:10.018Z,10.70
2022-09-23T06:55:12.708Z,10.68
2022-09-23T06:57:15.418Z,10.74
2022-09-23T06:59:18.260Z,10.77
2022-09-23T07:01:21.140Z,10.80
2022-09-23T07:03:25.099Z,10.80
2022-09-23T07:05:27.734Z,10.80
2022-09-23T07:07:31.586Z,10.84
2022-09-23T07:09:34.236Z,10.82
2022-09-23T07:11:37.645Z,10.87
2022-09-23T07:13:41.099Z,10.89
2022-09-23T07:15:43.727Z,10.93
2022-09-23T07:17:46.378Z,10.93
2022-09-23T07:19:50.735Z,10.96
2022-09-23T07:21:53.821Z,10.98
2022-09-23T07:23:58.165Z,10.99
2022-09-23T07:26:01.250Z,11.01
2022-09-23T07:28:03.875Z,11.09
2022-09-23T07:30:12.370Z,11.11
2022-09-23T07:32:19.909Z,11.15
2022-09-23T07:34:22.615Z,11.20
2022-09-23T07:36:28.009Z,11.24
2022-09-23T07:38:31.415Z,11.28
2022-09-23T07:40:34.138Z,11.33
2022-09-23T07:42:36.867Z,11.35
2022-09-23T07:44:39.509Z,11.45
2022-09-23T07:46:42.245Z,11.48
2022-09-23T07:48:45.665Z,11.52
2022-09-23T07:50:48.303Z,11.51
2022-09-23T07:52:53.113Z,11.55
2022-09-23T07:54:55.753Z,11.57
2022-09-23T07:56:58.448Z,11.51
2022-09-23T07:59:02.258Z,11.65
2022-09-23T08:01:06.299Z,11.79
2022-09-23T08:03:09.320Z,11.79
2022-09-23T08:05:12.038Z,11.73
2022-09-23T08:07:14.685Z,11.77
2022-09-23T08:09:23.813Z,11.85
2022-09-23T08:11:27.043Z,11.93
2022-09-23T08:13:30.805Z,12.04
2022-09-23T08:15:33.650Z,12.02
2022-09-23T08:17:36.350Z,11.95
2022-09-23T08:19:39.012Z,11.98
2022-09-23T08:21:41.789Z,12.00
2022-09-23T08:23:44.532Z,12.17
2022-09-23T08:25:48.829Z,12.19
2022-09-23T08:27:52.454Z,12.19
2022-09-23T08:29:55.100Z,12.33
2022-09-23T08:31:58.058Z,12.51
2022-09-23T08:34:00.666Z,12.61
2022-09-23T08:36:03.916Z,12.63
2022-09-23T08:38:06.739Z,12.73
2022-09-23T08:40:09.958Z,12.84
2022-09-23T08:42:18.346Z,12.80
2022-09-23T08:44:25.164Z,12.66
2022-09-23T08:46:30.882Z,12.70
2022-09-23T08:48:36.738Z,12.89
2022-09-23T08:50:42.723Z,12.86
2022-09-23T08:52:49.427Z,13.01
2022-09-23T08:54:55.445Z,13.16
2022-09-23T08:57:00.700Z,13.01
2022-09-23T08:59:08.456Z,12.99
2022-09-23T09:01:16.438Z,13.02
2022-09-23T09:03:21.664Z,13.17
2022-09-23T09:05:27.479Z,13.49
2022-09-23T09:07:37.667Z,13.50
2022-09-23T09:09:42.245Z,13.37
2022-09-23T09:11:48.620Z,13.46
2022-09-23T09:13:58.483Z,13.52
2022-09-23T09:16:14.986Z,13.59
2022-09-23T09:18:19.657Z,13.59
2022-09-23T09:20:23.640Z,13.80
2022-09-23T09:24:39.586Z,14.11
2022-09-23T09:26:42.253Z,14.03
2022-09-23T09:28:48.423Z,14.13
2022-09-23T09:30:54.685Z,14.17
2022-09-23T09:33:02.647Z,14.29
2022-09-23T09:35:08.794Z,14.39
2022-09-23T09:37:15.838Z,14.46
2022-09-23T09:39:21.861Z,14.59
2022-09-23T09:41:32.219Z,14.51
2022-09-23T09:43:35.301Z,14.53
2022-09-23T09:45:48.503Z,14.73
2022-09-23T09:47:56.595Z,14.91
2022-09-23T09:50:06.995Z,14.84
2022-09-23T09:52:13.662Z,14.96
2022-09-23T09:54:17.566Z,14.98
2022-09-23T09:56:27.202Z,15.24
2022-09-23T09:58:33.465Z,15.07
2022-09-23T10:00:38.144Z,15.11
2022-09-23T10:02:41.665Z,15.22
2022-09-23T10:04:44.441Z,15.31
2022-09-23T10:07:04.305Z,15.27
2022-09-23T10:09:11.435Z,15.36
2022-09-23T10:11:16.104Z,15.47
2022-09-23T10:13:20.622Z,15.30
2022-09-23T10:15:31.198Z,15.60
2022-09-23T10:17:35.353Z,15.78
2022-09-23T10:19:39.225Z,15.69
2022-09-23T10:21:42.216Z,15.62
2022-09-23T10:23:47.474Z,15.58
2022-09-23T10:25:57.440Z,15.68
2022-09-23T10:28:03.639Z,15.91
2022-09-23T10:30:22.140Z,15.93
2022-09-23T10:32:26.829Z,15.96
2022-09-23T10:34:29.635Z,15.96
2022-09-23T10:36:33.114Z,16.07
2022-09-23T10:38:35.719Z,16.15
2022-09-23T10:40:58.645Z,16.19
2022-09-23T10:43:29.841Z,16.28
2022-09-23T10:45:52.391Z,16.40
2022-09-23T10:48:00.890Z,16.50
2022-09-23T10:50:18.406Z,16.64
2022-09-23T10:52:28.012Z,16.64
2022-09-23T10:54:36.805Z,16.89
2022-09-23T10:56:44.002Z,16.82
2022-09-23T10:58:55.463Z,16.96
2022-09-23T11:01:04.264Z,16.90
2022-09-23T11:03:21.790Z,16.91
2022-09-23T11:05:32.662Z,17.00
2022-09-23T11:07:39.607Z,16.95
2022-09-23T11:09:53.311Z,17.02
2022-09-23T11:12:03.479Z,17.07
2022-09-23T11:14:15.738Z,17.10
2022-09-23T11:16:25.767Z,17.12
2022-09-23T11:18:49.142Z,17.33
2022-09-23T11:20:57.779Z,17.42
2022-09-23T11:23:11.960Z,17.44
2022-09-23T11:25:21.143Z,17.29
2022-09-23T11:27:31.641Z,17.27
2022-09-23T11:29:45.324Z,17.16
2022-09-23T11:31:58.828Z,17.40
2022-09-23T11:34:08.765Z,17.38
2022-09-23T11:36:13.657Z,17.35
2022-09-23T11:38:18.846Z,17.49
2022-09-23T11:40:24.342Z,17.49
2022-09-23T11:42:29.921Z,17.75
2022-09-23T11:44:34.724Z,17.67
2022-09-23T11:46:39.891Z,17.55
2022-09-23T11:48:44.696Z,17.67
2022-09-23T11:50:49.911Z,17.82
2022-09-23T11:52:58.536Z,17.86
2022-09-23T11:55:10.566Z,17.95
2022-09-23T11:57:20.944Z,17.88
2022-09-23T11:59:39.469Z,17.71
2022-09-23T12:01:46.627Z,17.78
2022-09-23T12:03:52.646Z,17.98
2022-09-23T12:06:02.474Z,18.02
2022-09-23T12:08:08.078Z,18.06
2022-09-23T12:10:12.115Z,18.05
2022-09-23T12:12:18.731Z,18.19
2022-09-23T12:14:25.859Z,18.27
2022-09-23T12:16:53.729Z,18.20
2022-09-23T12:19:04.503Z,18.09
2022-09-23T12:21:27.414Z,18.18
2022-09-23T12:23:44.420Z,18.10
2022-09-23T12:25:51.019Z,17.96
2022-09-23T12:27:55.455Z,18.08
2022-09-23T12:30:00.315Z,18.04
2022-09-23T12:32:09.845Z,18.03
2022-09-23T12:34:21.742Z,18.05
2022-09-23T12:36:26.703Z,18.03
2022-09-23T12:38:34.494Z,18.08
2022-09-23T12:40:40.751Z,17.93
2022-09-23T12:42:45.969Z,17.92
2022-09-23T12:44:50.512Z,17.97
2022-09-23T12:47:24.730Z,18.03
2022-09-23T12:49:37.495Z,18.17
2022-09-23T12:52:00.129Z,18.29
2022-09-23T12:54:21.091Z,18.46
2022-09-23T12:56:25.202Z,18.62
2022-09-23T12:58:38.417Z,18.57
2022-09-23T13:00:41.034Z,18.69
2022-09-23T13:02:44.552Z,18.39
2022-09-23T13:05:14.657Z,18.21
2022-09-23T13:07:17.676Z,18.04
2022-09-23T13:09:22.373Z,18.11
2022-09-23T13:11:27.298Z,18.17
2022-09-23T13:13:33.790Z,18.39
2022-09-23T13:15:37.230Z,18.45
2022-09-23T13:17:40.867Z,18.61
2022-09-23T13:19:47.026Z,18.51
2022-09-23T13:22:07.871Z,18.55
2022-09-23T13:24:21.456Z,18.61
2022-09-23T13:26:24.124Z,18.54
2022-09-23T13:28:32.564Z,18.32
2022-09-23T13:30:35.595Z,18.25
2022-09-23T13:32:40.556Z,18.19
2022-09-23T13:34:44.238Z,18.16
2022-09-23T13:36:47.492Z,18.11
2022-09-23T13:38:51.414Z,17.99
2022-09-23T13:40:55.474Z,18.01
2022-09-23T13:42:59.611Z,18.00
2022-09-23T13:45:02.308Z,17.96
2022-09-23T13:47:04.963Z,18.05
2022-09-23T13:49:19.668Z,18.04
2022-09-23T13:51:24.461Z,18.09
2022-09-23T13:53:28.612Z,18.11
2022-09-23T13:55:33.471Z,18.23
2022-09-23T13:57:36.160Z,18.30
2022-09-23T13:59:42.295Z,18.38
2022-09-23T14:01:45.551Z,18.41
2022-09-23T14:03:48.409Z,18.46
2022-09-23T14:05:51.791Z,18.61
2022-09-23T14:07:55.352Z,18.56
2022-09-23T14:09:57.944Z,18.55
2022-09-23T14:12:02.947Z,18.55
2022-09-23T14:14:07.030Z,18.60
2022-09-23T14:16:11.896Z,18.71
2022-09-23T14:18:19.090Z,18.75
2022-09-23T14:20:22.701Z,18.82
2022-09-23T14:22:26.237Z,18.93
2022-09-23T14:24:32.856Z,18.82
2022-09-23T14:26:35.501Z,18.73
2022-09-23T14:28:39.471Z,18.68
2022-09-23T14:30:43.306Z,18.60
2022-09-23T14:32:47.759Z,18.70
2022-09-23T14:34:51.261Z,18.62
2022-09-23T14:37:11.281Z,18.65
2022-09-23T14:39:13.885Z,18.77
2022-09-23T14:41:22.098Z,18.73
2022-09-23T14:43:26.111Z,18.57
2022-09-23T14:45:32.551Z,18.58
2022-09-23T14:47:36.189Z,18.47
2022-09-23T14:49:58.824Z,18.50
2022-09-23T14:52:06.816Z,18.41
2022-09-23T14:54:39.790Z,18.40
2022-09-23T14:56:43.186Z,18.52
2022-09-23T14:58:51.902Z,18.40
2022-09-23T15:00:58.486Z,18.30
2022-09-23T15:03:01.862Z,18.31
2022-09-23T15:05:18.590Z,18.32
2022-09-23T15:07:23.124Z,18.35
2022-09-23T15:09:26.899Z,18.28
2022-09-23T15:11:31.140Z,18.26
2022-09-23T15:13:36.918Z,18.27
2022-09-23T15:15:39.648Z,18.29
2022-09-23T15:17:44.027Z,18.28
2022-09-23T15:19:52.429Z,18.28
2022-09-23T15:21:54.994Z,18.34
2022-09-23T15:23:58.548Z,18.27
2022-09-23T15:26:03.300Z,18.27
2022-09-23T15:28:18.191Z,18.28
2022-09-23T15:30:21.066Z,18.25
2022-09-23T15:32:23.686Z,18.21
2022-09-23T15:34:27.641Z,18.22
2022-09-23T15:36:30.340Z,18.21
2022-09-23T15:38:33.176Z,18.21
2022-09-23T15:40:36.490Z,18.18
2022-09-23T15:42:39.708Z,18.13
2022-09-23T15:44:42.265Z,18.13
2022-09-23T15:46:46.213Z,18.07
2022-09-23T15:48:58.774Z,18.07
2022-09-23T15:51:10.485Z,18.03
2022-09-23T15:53:15.018Z,18.07
2022-09-23T15:55:18.351Z,17.98
2022-09-23T15:57:21.506Z,17.93
2022-09-23T15:59:24.416Z,17.88
2022-09-23T16:01:28.706Z,17.85
2022-09-23T16:03:31.607Z,17.85
2022-09-23T16:05:36.716Z,17.87
2022-09-23T16:07:40.694Z,17.80
2022-09-23T16:09:43.384Z,17.77
2022-09-23T16:11:47.133Z,17.76
2022-09-23T16:13:51.322Z,17.74
2022-09-23T16:15:53.969Z,17.72
2022-09-23T16:17:56.579Z,17.69
2022-09-23T16:19:59.183Z,17.66
2022-09-23T16:22:01.982Z,17.65
2022-09-23T16:24:06.329Z,17.65
2022-09-23T16:26:15.132Z,17.65
2022-09-23T16:28:17.734Z,17.63
2022-09-23T16:30:20.346Z,17.61
2022-09-23T16:32:24.070Z,17.58
2022-09-23T16:34:26.644Z,17.55
2022-09-23T16:36:31.206Z,17.51
2022-09-23T16:38:33.794Z,17.48
2022-09-23T16:40:37.747Z,17.47
2022-09-23T16:42:40.370Z,17.44
2022-09-23T16:44:43.059Z,17.40
2022-09-23T16:46:45.661Z,17.33
2022-09-23T16:48:52.717Z,17.27
2022-09-23T16:50:55.771Z,17.23
2022-09-23T16:52:58.568Z,17.20
2022-09-23T16:55:01.204Z,17.16
2022-09-23T16:57:05.255Z,17.09
2022-09-23T16:59:07.980Z,17.03
2022-09-23T17:01:30.531Z,17.01
2022-09-23T17:03:41.140Z,16.96
2022-09-23T17:05:46.592Z,16.91
2022-09-23T17:07:49.562Z,16.86
2022-09-23T17:09:52.233Z,16.81
2022-09-23T17:11:59.147Z,16.78
2022-09-23T17:14:03.090Z,16.73
2022-09-23T17:16:06.022Z,16.69
2022-09-23T17:18:09.348Z,16.66
2022-09-23T17:20:13.084Z,16.63
2022-09-23T17:22:15.664Z,16.59
2022-09-23T17:24:18.229Z,16.56
2022-09-23T17:26:23.214Z,16.52
2022-09-23T17:28:26.318Z,16.50
2022-09-23T17:30:30.278Z,16.49
2022-09-23T17:32:32.871Z,16.48
2022-09-23T17:34:35.453Z,16.44
2022-09-23T17:36:39.500Z,16.42
2022-09-23T17:38:43.450Z,16.37
2022-09-23T17:40:50.279Z,16.39
2022-09-23T17:42:53.639Z,16.35
2022-09-23T17:44:58.162Z,16.28
2022-09-23T17:47:02.125Z,16.18
2022-09-23T17:49:05.267Z,16.16
2022-09-23T17:51:08.757Z,16.18
2022-09-23T17:53:11.352Z,16.20
2022-09-23T17:55:13.978Z,16.20
2022-09-23T17:57:16.606Z,16.16
2022-09-23T17:59:19.218Z,16.11
2022-09-23T18:01:22.938Z,15.96
2022-09-23T18:03:28.087Z,15.91
2022-09-23T18:05:30.834Z,15.92
2022-09-23T18:07:33.439Z,15.96
2022-09-23T18:09:36.045Z,15.96
2022-09-23T18:11:39.383Z,15.99
2022-09-23T18:13:42.977Z,16.02
2022-09-23T18:15:45.641Z,16.10
2022-09-23T18:17:48.260Z,16.14
2022-09-23T18:19:52.167Z,16.07
2022-09-23T18:21:56.062Z,15.99
2022-09-23T18:24:21.339Z,15.92
2022-09-23T18:26:22.712Z,15.84
2022-09-23T18:28:25.297Z,15.82
2022-09-23T18:30:31.980Z,15.79
2022-09-23T18:32:34.789Z,15.74
2022-09-23T18:34:37.438Z,15.70
2022-09-23T18:36:41.428Z,15.67
2022-09-23T18:38:44.029Z,15.63
2022-09-23T18:40:55.357Z,15.55
2022-09-23T18:42:57.953Z,15.53
2022-09-23T18:45:00.537Z,15.54
2022-09-23T18:47:03.137Z,15.52
2022-09-23T18:49:23.647Z,15.51
2022-09-23T18:51:28.164Z,15.48
2022-09-23T18:53:34.356Z,15.46
2022-09-23T18:55:37.375Z,15.44
2022-09-23T18:57:40.711Z,15.43
2022-09-23T18:59:44.332Z,15.39
2022-09-23T19:01:48.160Z,15.36
2022-09-23T19:03:54.724Z,15.35
2022-09-23T19:06:01.856Z,15.34
2022-09-23T19:08:04.508Z,15.31
2022-09-23T19:10:09.900Z,15.28
2022-09-23T19:12:12.540Z,15.14
2022-09-23T19:14:15.515Z,15.10
2022-09-23T19:16:18.319Z,15.12
2022-09-23T19:18:21.191Z,15.15
2022-09-23T19:20:24.625Z,15.17
2022-09-23T19:22:27.201Z,15.16
2022-09-23T19:24:29.794Z,15.13
2022-09-23T19:26:36.624Z,15.10
2022-09-23T19:28:39.628Z,15.05
2022-09-23T19:30:42.368Z,15.06
2022-09-23T19:32:45.221Z,15.17
2022-09-23T19:34:47.838Z,15.09
2022-09-23T19:36:50.464Z,15.01
2022-09-23T19:38:56.896Z,15.00
2022-09-23T19:41:03.530Z,14.98
2022-09-23T19:43:07.602Z,14.96
2022-09-23T19:45:10.538Z,14.96
2022-09-23T19:47:17.023Z,14.94
2022-09-23T19:49:19.735Z,14.92
2022-09-23T19:51:22.484Z,14.95
2022-09-23T19:53:28.111Z,14.92
2022-09-23T19:55:31.096Z,14.92
2022-09-23T19:57:33.972Z,14.90
2022-09-23T19:59:40.091Z,14.88
2022-09-23T20:01:42.785Z,14.83
2022-09-23T20:03:46.893Z,14.80
2022-09-23T20:05:55.189Z,14.76
2022-09-23T20:07:58.924Z,14.77
2022-09-23T20:10:01.770Z,14.71
2022-09-23T20:12:04.763Z,14.69
2022-09-23T20:14:07.769Z,14.66
2022-09-23T20:16:12.227Z,14.62
2022-09-23T20:18:15.247Z,14.60
2022-09-23T20:20:18.008Z,14.55
2022-09-23T20:22:32.230Z,14.52
2022-09-23T20:24:35.880Z,14.49
2022-09-23T20:26:56.295Z,14.49
2022-09-23T20:28:59.571Z,14.49
2022-09-23T20:31:02.308Z,14.47
2022-09-23T20:33:06.308Z,14.46
2022-09-23T20:35:09.260Z,14.45
2022-09-23T20:37:11.975Z,14.43
2022-09-23T20:39:14.610Z,14.44
2022-09-23T20:41:17.202Z,14.44
2022-09-23T20:43:20.148Z,14.43
2022-09-23T20:45:22.687Z,14.40
2022-09-23T20:47:25.391Z,14.36
2022-09-23T20:49:34.033Z,14.34
2022-09-23T20:51:36.677Z,14.34
2022-09-23T20:53:39.276Z,14.37
2022-09-23T20:55:49.750Z,14.35
2022-09-23T20:57:52.476Z,14.36
2022-09-23T20:59:55.045Z,14.28
2022-09-23T21:01:58.083Z,14.23
2022-09-23T21:04:03.737Z,14.24
2022-09-23T21:06:08.963Z,14.23
2022-09-23T21:08:12.520Z,14.23
2022-09-23T21:10:15.137Z,14.20
2022-09-23T21:12:17.736Z,14.13
2022-09-23T21:14:21.508Z,14.11
2022-09-23T21:16:24.526Z,14.09
2022-09-23T21:18:27.559Z,14.11
2022-09-23T21:20:30.206Z,14.11
2022-09-23T21:22:35.102Z,14.12
2022-09-23T21:25:25.338Z,14.10
2022-09-23T21:27:00.296Z,14.12
2022-09-23T21:29:03.900Z,14.13
2022-09-23T21:31:08.354Z,14.12
2022-09-23T21:33:11.638Z,14.10
2022-09-23T21:35:14.591Z,14.07
2022-09-23T21:37:17.538Z,14.03
2022-09-23T21:39:21.636Z,13.99
2022-09-23T21:41:24.877Z,13.95
2022-09-23T21:43:32.409Z,13.89
2022-09-23T21:45:35.133Z,13.92
2022-09-23T21:47:37.838Z,13.90
2022-09-23T21:49:41.522Z,13.88
2022-09-23T21:51:54.859Z,13.89
2022-09-23T21:53:58.714Z,13.89
2022-09-23T21:56:04.248Z,13.89
2022-09-23T21:58:07.223Z,13.93
2022-09-23T22:00:10.684Z,13.97
2022-09-23T22:02:13.804Z,13.98
2022-09-23T22:04:19.893Z,13.93
2022-09-23T22:06:23.529Z,13.96
2022-09-23T22:08:26.168Z,13.93
2022-09-23T22:10:29.490Z,13.94
2022-09-23T22:12:33.762Z,13.92
2022-09-23T22:14:39.272Z,13.94
2022-09-23T22:16:42.616Z,13.94
2022-09-23T22:18:45.398Z,13.92
2022-09-23T22:20:48.428Z,13.92
2022-09-23T22:22:51.309Z,13.91
2022-09-23T22:24:53.978Z,13.90
2022-09-23T22:26:56.574Z,13.86
2022-09-23T22:29:18.290Z,13.85
2022-09-23T22:31:38.866Z,13.85
2022-09-23T22:33:41.518Z,13.83
2022-09-23T22:35:44.124Z,13.84
2022-09-23T22:37:49.109Z,13.83
2022-09-23T22:39:51.850Z,13.80
2022-09-23T22:41:54.809Z,13.79
2022-09-23T22:43:58.416Z,13.82
2022-09-23T22:46:02.469Z,13.84
2022-09-23T22:48:05.352Z,13.82
2022-09-23T22:50:09.540Z,13.82
2022-09-23T22:52:21.188Z,13.82
2022-09-23T22:54:24.128Z,13.84
2022-09-23T22:56:26.758Z,13.87
2022-09-23T22:58:32.669Z,13.86
2022-09-23T23:00:37.116Z,13.86
2022-09-23T23:02:42.280Z,13.85
2022-09-23T23:04:47.431Z,13.84
2022-09-23T23:06:50.062Z,13.84
2022-09-23T23:08:52.668Z,13.83
2022-09-23T23:10:55.852Z,13.79
2022-09-23T23:12:59.089Z,13.78
2022-09-23T23:15:01.732Z,13.78
2022-09-23T23:17:08.379Z,13.79
2022-09-23T23:19:13.981Z,13.79
2022-09-23T23:21:18.005Z,13.83
2022-09-23T23:23:20.614Z,13.84
2022-09-23T23:25:23.185Z,13.84
2022-09-23T23:27:25.798Z,13.82
2022-09-23T23:29:28.654Z,13.79
2022-09-23T23:31:33.032Z,13.78
2022-09-23T23:33:36.176Z,13.73
2022-09-23T23:35:40.106Z,13.72
2022-09-23T23:37:42.743Z,13.71
2022-09-23T23:39:47.656Z,13.69
2022-09-23T23:41:52.214Z,13.69
2022-09-23T23:43:55.745Z,13.69
2022-09-23T23:45:59.958Z,13.69
2022-09-23T23:48:03.060Z,13.66
2022-09-23T23:50:06.298Z,13.66
2022-09-23T23:52:10.607Z,13.68
2022-09-23T23:54:15.023Z,13.67
2022-09-23T23:56:18.541Z,13.67
2022-09-23T23:58:21.162Z,13.67
